Time;durP1;ratioP1;P1;durP2;ratioP2;P2;SDS_P1;SDS_P2;PMS_P1;PMS_P2;Temp;Humidity;BMP_temperature;BMP_pressure;BME280_temperature;BME280_humidity;BME280_pressure;Samples;Min_cycle;Max_cycle;Signal;HPM_P1;HPM_P2
2022/08/08 00:01:28;;;;;;;2.00;0.70;;;;;;;15.46;54.10;96245.94;5026864;28;24438;-79
2022/08/08 00:04:02;;;;;;;2.20;0.82;;;;;;;15.55;53.26;96237.44;5029590;28;24435;-80
2022/08/08 00:06:47;;;;;;;1.50;1.00;;;;;;;15.72;52.24;96237.06;5016301;28;24463;-79
2022/08/08 00:09:22;;;;;;;1.60;0.70;;;;;;;15.95;51.92;96235.28;5025260;28;24433;-79
2022/08/08 00:11:58;;;;;;;2.70;0.60;;;;;;;15.78;53.00;96240.97;5013261;28;24444;-80
2022/08/08 00:14:34;;;;;;;1.00;0.80;;;;;;;15.63;53.42;96248.13;5025732;28;24543;-78
2022/08/08 00:17:06;;;;;;;2.33;0.80;;;;;;;15.38;54.62;96238.69;5024442;28;24442;-78
2022/08/08 00:19:39;;;;;;;1.20;0.77;;;;;;;15.28;54.58;96242.09;5019525;28;25004;-78
2022/08/08 00:22:15;;;;;;;0.75;0.55;;;;;;;15.24;54.42;96239.75;5017270;28;24911;-78
2022/08/08 00:24:47;;;;;;;0.68;0.55;;;;;;;15.21;54.66;96249.56;5025165;28;24454;-78
2022/08/08 00:27:17;;;;;;;1.25;0.77;;;;;;;15.35;53.38;96249.38;5027242;28;24460;-78
2022/08/08 00:29:49;;;;;;;1.70;0.73;;;;;;;15.50;52.50;96250.03;5022760;28;24806;-78
2022/08/08 00:32:22;;;;;;;0.95;0.70;;;;;;;15.53;53.13;96247.16;5026480;28;24436;-78
2022/08/08 00:35:15;;;;;;;1.23;0.77;;;;;;;15.52;53.18;96244.69;5026920;28;24996;-78
2022/08/08 00:37:57;;;;;;;1.17;0.60;;;;;;;15.18;53.08;96252.41;5028670;28;24534;-78
2022/08/08 00:41:08;;;;;;;1.50;0.60;;;;;;;15.15;53.45;96263.88;5018847;28;24436;-78
2022/08/08 00:44:08;;;;;;;1.40;0.90;;;;;;;15.17;55.11;96263.78;5022162;28;24432;-78
2022/08/08 00:46:52;;;;;;;1.67;0.70;;;;;;;15.07;55.46;96263.63;5008893;28;24459;-78
2022/08/08 00:49:57;;;;;;;1.50;0.77;;;;;;;14.93;55.65;96263.78;5021421;28;24516;-77
2022/08/08 00:52:41;;;;;;;1.17;0.70;;;;;;;14.87;55.83;96264.22;4961132;28;24444;-78
2022/08/08 00:55:24;;;;;;;1.42;0.65;;;;;;;14.73;56.24;96263.44;5029093;28;24872;-78
2022/08/08 00:58:34;;;;;;;2.63;0.77;;;;;;;14.71;56.42;96260.09;5022113;28;24986;-78
2022/08/08 01:01:14;;;;;;;1.00;0.60;;;;;;;14.87;55.89;96259.84;5009508;28;24447;-78
2022/08/08 01:04:13;;;;;;;1.00;0.90;;;;;;;14.92;55.53;96270.78;5021267;28;24509;-78
2022/08/08 01:07:23;;;;;;;1.40;0.77;;;;;;;15.02;55.07;96263.13;5017418;28;24530;-79
2022/08/08 01:10:24;;;;;;;1.08;0.75;;;;;;;15.21;54.36;96260.84;5019860;28;24927;-78
2022/08/08 01:13:28;;;;;;;1.45;0.80;;;;;;;15.13;55.38;96264.94;5021666;28;24471;-80
2022/08/08 01:16:18;;;;;;;0.93;0.70;;;;;;;14.96;55.96;96261.78;5014932;28;24439;-78
2022/08/08 01:19:33;;;;;;;1.13;0.70;;;;;;;14.66;56.72;96267.44;5013545;28;24464;-78
2022/08/08 01:22:36;;;;;;;1.70;0.80;;;;;;;14.66;56.82;96264.00;5017920;28;24440;-79
2022/08/08 01:25:36;;;;;;;2.10;0.80;;;;;;;14.49;57.61;96260.78;5017795;28;24444;-78
2022/08/08 01:28:15;;;;;;;2.00;0.75;;;;;;;14.53;57.22;96266.63;5007868;28;24526;-79
2022/08/08 01:31:27;;;;;;;0.85;0.73;;;;;;;14.63;56.90;96269.41;5026731;28;24440;-78
2022/08/08 01:34:29;;;;;;;1.60;0.80;;;;;;;14.64;57.40;96266.69;5030931;28;24447;-79
2022/08/08 01:37:22;;;;;;;1.25;0.80;;;;;;;14.54;58.28;96268.31;5022780;28;24451;-78
2022/08/08 01:40:04;;;;;;;1.77;1.17;;;;;;;14.68;58.50;96262.94;5019379;28;24436;-78
2022/08/08 01:42:36;;;;;;;1.25;0.95;;;;;;;14.81;58.29;96272.50;5017047;28;24443;-78
2022/08/08 01:45:15;;;;;;;4.15;1.13;;;;;;;14.92;58.31;96272.56;5027752;28;24435;-77
2022/08/08 01:47:54;;;;;;;1.37;1.00;;;;;;;15.06;58.08;96275.00;5028412;28;24464;-78
2022/08/08 01:50:35;;;;;;;1.60;1.00;;;;;;;15.05;58.07;96273.31;5034030;28;24520;-78
2022/08/08 01:53:11;;;;;;;3.10;0.90;;;;;;;15.11;58.14;96275.50;5030540;28;24439;-78
2022/08/08 01:55:48;;;;;;;2.17;1.10;;;;;;;14.90;58.66;96274.44;5037041;28;24806;-78
2022/08/08 01:58:29;;;;;;;1.20;0.80;;;;;;;14.61;59.51;96273.91;5034199;28;24447;-79
2022/08/08 02:01:09;;;;;;;1.20;0.80;;;;;;;14.84;58.87;96275.72;5028744;28;24463;-78
2022/08/08 02:03:51;;;;;;;1.02;0.80;;;;;;;14.87;58.46;96266.81;5021185;28;24436;-78
2022/08/08 02:06:33;;;;;;;1.40;0.82;;;;;;;14.89;58.49;96267.56;5039373;28;24440;-78
2022/08/08 02:09:06;;;;;;;2.40;1.00;;;;;;;14.80;57.97;96270.84;5030247;28;24893;-79
2022/08/08 02:11:36;;;;;;;0.93;0.70;;;;;;;14.31;59.14;96261.22;5031239;28;24455;-79
2022/08/08 02:14:07;;;;;;;2.15;0.95;;;;;;;14.21;59.38;96256.66;5022489;28;24843;-78
2022/08/08 02:16:43;;;;;;;1.15;0.90;;;;;;;13.89;60.59;96253.66;5020138;28;24452;-78
2022/08/08 02:19:16;;;;;;;0.85;0.70;;;;;;;13.84;60.56;96254.94;5026619;28;24455;-78
2022/08/08 02:24:44;;;;;;;1.23;0.80;;;;;;;13.70;62.01;96253.25;5018346;28;24444;-78
2022/08/08 02:27:17;;;;;;;0.95;0.70;;;;;;;13.77;61.56;96244.91;5030631;28;24467;-79
2022/08/08 02:30:03;;;;;;;2.28;1.05;;;;;;;13.85;61.35;96253.97;5026892;28;24435;-78
2022/08/08 02:32:52;;;;;;;1.30;0.88;;;;;;;13.84;61.31;96262.75;5016949;28;24435;-79
2022/08/08 02:35:45;;;;;;;1.20;0.82;;;;;;;13.70;60.94;96250.66;5019585;28;24440;-79
2022/08/08 02:38:59;;;;;;;1.17;0.82;;;;;;;13.76;60.84;96258.06;5028644;28;24444;-80
2022/08/08 02:41:44;;;;;;;1.05;0.88;;;;;;;13.89;60.35;96253.66;4969740;28;24430;-80
2022/08/08 02:44:51;;;;;;;4.18;1.00;;;;;;;14.04;60.17;96250.00;4976169;28;24457;-80
2022/08/08 02:47:51;;;;;;;2.00;1.10;;;;;;;14.10;60.40;96256.56;5007422;28;24463;-79
2022/08/08 02:51:01;;;;;;;0.90;0.80;;;;;;;14.01;61.37;96254.59;4999694;28;24435;-80
2022/08/08 02:53:51;;;;;;;1.33;0.70;;;;;;;13.61;62.25;96257.31;5018410;28;24440;-79
2022/08/08 02:56:52;;;;;;;2.20;1.10;;;;;;;13.42;63.16;96249.91;5023364;28;24440;-80
2022/08/08 03:00:16;;;;;;;4.32;0.80;;;;;;;13.43;62.80;96250.75;5026288;28;24451;-80
2022/08/08 03:03:16;;;;;;;3.53;1.10;;;;;;;13.65;61.94;96260.56;5018986;28;24806;-80
2022/08/08 03:06:16;;;;;;;2.28;0.77;;;;;;;13.41;63.09;96261.22;5026478;28;24443;-79
2022/08/08 03:09:20;;;;;;;2.15;0.80;;;;;;;13.19;63.92;96248.75;5040020;22;24471;-80
2022/08/08 03:12:21;;;;;;;1.25;0.90;;;;;;;13.28;63.64;96255.19;5049392;28;24435;-80
2022/08/08 03:14:56;;;;;;;1.55;0.82;;;;;;;13.48;62.52;96265.09;5041808;28;25024;-81
2022/08/08 03:17:28;;;;;;;1.60;0.90;;;;;;;13.61;62.17;96259.06;5047905;28;24442;-81
2022/08/08 03:20:02;;;;;;;1.30;0.70;;;;;;;13.67;62.15;96261.25;5027594;28;24443;-79
2022/08/08 03:22:28;;;;;;;1.67;1.00;;;;;;;13.43;63.19;96263.75;5015082;28;24543;-79
2022/08/08 03:24:56;;;;;;;2.20;0.87;;;;;;;13.36;63.68;96265.09;5022127;28;24866;-82
2022/08/08 03:27:28;;;;;;;1.20;0.80;;;;;;;13.40;63.63;96269.97;5013723;28;25133;-80
2022/08/08 03:30:01;;;;;;;1.65;0.90;;;;;;;13.27;63.83;96267.38;5027678;28;24444;-80
2022/08/08 03:35:14;;;;;;;1.17;0.80;;;;;;;13.15;64.65;96275.09;4993936;28;24440;-80
2022/08/08 03:37:40;;;;;;;1.63;0.85;;;;;;;13.11;64.74;96269.25;5020104;28;24439;-81
2022/08/08 03:40:09;;;;;;;1.85;1.02;;;;;;;13.15;64.66;96270.72;5024029;28;24447;-81
2022/08/08 03:42:37;;;;;;;1.42;0.80;;;;;;;13.27;64.23;96266.50;5027041;28;24443;-82
2022/08/08 03:45:13;;;;;;;1.27;0.90;;;;;;;13.35;63.75;96268.59;5022212;28;24533;-79
2022/08/08 03:47:40;;;;;;;1.50;1.00;;;;;;;13.34;64.05;96272.13;5017443;28;24467;-80
2022/08/08 03:50:15;;;;;;;1.13;0.90;;;;;;;13.26;64.52;96276.06;5022348;28;24444;-80
2022/08/08 03:52:42;;;;;;;2.22;0.80;;;;;;;13.30;64.15;96277.53;5025354;28;24462;-79
2022/08/08 03:55:11;;;;;;;1.13;1.00;;;;;;;13.36;64.19;96280.69;5016588;28;24433;-81
2022/08/08 03:57:38;;;;;;;2.90;1.00;;;;;;;13.31;64.57;96275.78;5013745;28;24440;-80
2022/08/08 04:00:09;;;;;;;1.67;1.08;;;;;;;13.34;64.38;96280.78;5013112;28;25003;-82
2022/08/08 04:02:35;;;;;;;2.28;0.93;;;;;;;13.43;63.96;96289.75;5012337;28;24845;-78
2022/08/08 04:05:03;;;;;;;2.00;0.90;;;;;;;13.43;63.90;96284.56;5016299;28;24444;-80
2022/08/08 04:07:36;;;;;;;1.45;0.80;;;;;;;13.43;63.77;96287.16;5018609;28;24460;-80
2022/08/08 04:10:02;;;;;;;1.92;0.98;;;;;;;13.38;64.35;96284.00;5018617;28;24436;-79
2022/08/08 04:12:30;;;;;;;2.00;0.77;;;;;;;13.37;64.44;96290.97;5025044;28;24428;-79
2022/08/08 04:14:56;;;;;;;1.48;0.90;;;;;;;13.43;64.22;96293.19;5016629;28;25029;-81
2022/08/08 04:17:23;;;;;;;0.95;0.82;;;;;;;13.25;64.93;96290.03;5013334;28;24439;-80
2022/08/08 04:19:49;;;;;;;1.40;0.87;;;;;;;13.12;65.35;96291.72;5016926;28;24455;-82
2022/08/08 04:22:16;;;;;;;1.30;0.90;;;;;;;13.11;65.62;96297.03;5024261;28;24440;-81
2022/08/08 04:24:42;;;;;;;1.00;0.90;;;;;;;13.05;65.91;96298.22;5026415;28;24444;-79
2022/08/08 04:27:09;;;;;;;1.92;1.00;;;;;;;13.03;66.31;96297.50;5026595;28;24846;-80
2022/08/08 04:29:37;;;;;;;3.60;0.90;;;;;;;12.93;66.69;96297.25;5023094;28;24454;-80
2022/08/08 04:32:04;;;;;;;1.27;0.80;;;;;;;13.01;66.47;96299.38;5022918;28;24443;-82
2022/08/08 04:34:31;;;;;;;3.88;1.00;;;;;;;13.14;65.89;96294.22;5019454;28;24443;-82
2022/08/08 04:36:57;;;;;;;1.33;0.90;;;;;;;12.94;66.83;96300.69;5020609;28;24436;-81
2022/08/08 04:39:23;;;;;;;2.63;1.00;;;;;;;13.05;66.89;96308.63;5017475;28;24451;-79
2022/08/08 04:41:50;;;;;;;1.15;0.80;;;;;;;13.02;67.01;96307.09;5022547;28;24452;-81
2022/08/08 04:44:16;;;;;;;1.70;1.10;;;;;;;12.83;68.34;96304.00;5014007;28;24443;-79
2022/08/08 04:46:44;;;;;;;3.70;1.10;;;;;;;12.79;68.51;96302.50;5019005;28;24432;-80
2022/08/08 04:49:11;;;;;;;1.70;1.13;;;;;;;12.78;68.82;96306.88;5021004;28;24488;-77
2022/08/08 04:51:37;;;;;;;1.48;0.80;;;;;;;12.78;68.83;96313.81;5020307;28;24448;-81
2022/08/08 04:54:04;;;;;;;2.53;1.10;;;;;;;12.89;68.75;96315.75;5016521;28;24451;-74
2022/08/08 04:56:30;;;;;;;1.20;0.82;;;;;;;13.04;69.94;96319.97;5009680;28;24447;-71
2022/08/08 04:58:57;;;;;;;1.83;1.40;;;;;;;13.10;69.82;96324.78;5012313;28;24445;-72
2022/08/08 05:01:23;;;;;;;1.77;1.15;;;;;;;13.22;70.72;96328.38;5022101;28;24782;-72
2022/08/08 05:03:51;;;;;;;4.07;1.20;;;;;;;13.36;70.60;96330.94;5015983;28;24454;-72
2022/08/08 05:06:18;;;;;;;2.00;1.20;;;;;;;13.35;71.47;96333.63;5015064;28;24506;-73
2022/08/08 05:08:45;;;;;;;2.13;1.00;;;;;;;13.71;68.47;96339.03;5019896;28;24463;-72
2022/08/08 05:11:12;;;;;;;2.70;1.00;;;;;;;13.67;69.15;96337.56;5016958;28;24437;-71
2022/08/08 05:13:39;;;;;;;2.35;1.38;;;;;;;13.74;68.84;96344.03;5014478;28;24531;-71
2022/08/08 05:16:06;;;;;;;1.80;1.13;;;;;;;13.91;69.92;96347.31;5025292;28;24440;-72
2022/08/08 05:18:35;;;;;;;2.42;1.20;;;;;;;14.02;68.15;96348.25;5020578;28;24444;-72
2022/08/08 05:21:04;;;;;;;3.40;1.38;;;;;;;14.04;65.60;96348.97;5024801;28;24729;-72
2022/08/08 05:23:30;;;;;;;3.20;1.58;;;;;;;14.22;66.04;96353.88;5021022;28;25048;-72
2022/08/08 05:25:57;;;;;;;3.13;1.67;;;;;;;14.25;65.55;96348.47;5018862;28;24977;-73
2022/08/08 05:28:23;;;;;;;4.30;1.65;;;;;;;14.31;66.52;96344.59;5016000;28;24455;-71
2022/08/08 05:30:50;;;;;;;2.50;1.30;;;;;;;14.40;63.68;96346.59;5021240;28;24958;-75
2022/08/08 05:33:17;;;;;;;2.53;1.20;;;;;;;14.55;61.87;96357.75;5021224;28;24467;-74
2022/08/08 05:35:45;;;;;;;1.85;1.08;;;;;;;14.67;61.27;96357.72;5019770;28;24997;-73
2022/08/08 05:38:15;;;;;;;1.20;0.90;;;;;;;14.88;60.51;96359.78;5026366;28;24435;-74
2022/08/08 05:40:46;;;;;;;1.92;1.17;;;;;;;14.98;59.61;96359.03;5019039;28;24440;-74
2022/08/08 05:43:16;;;;;;;4.15;1.20;;;;;;;14.98;59.42;96356.41;5017423;28;25108;-72
2022/08/08 05:45:44;;;;;;;1.87;1.10;;;;;;;15.04;59.06;96364.75;5025202;28;24531;-71
2022/08/08 05:48:12;;;;;;;1.60;1.00;;;;;;;15.07;58.90;96357.53;5023140;28;24471;-72
2022/08/08 05:50:39;;;;;;;1.90;1.00;;;;;;;15.13;58.20;96356.25;5018816;28;24460;-74
2022/08/08 05:53:06;;;;;;;1.60;1.00;;;;;;;14.99;57.86;96360.69;5016642;28;24845;-75
2022/08/08 05:55:35;;;;;;;1.42;0.90;;;;;;;15.16;57.26;96359.47;5021225;28;24433;-72
2022/08/08 05:58:03;;;;;;;0.90;0.70;;;;;;;15.30;55.64;96360.25;5021769;28;24485;-73
2022/08/08 06:00:32;;;;;;;1.85;1.00;;;;;;;15.21;55.79;96365.22;5019210;28;24448;-74
2022/08/08 06:03:11;;;;;;;2.00;1.00;;;;;;;15.20;55.38;96368.78;5014408;28;25012;-72
2022/08/08 06:05:45;;;;;;;1.88;0.90;;;;;;;15.32;54.60;96364.44;5011740;28;25000;-72
2022/08/08 06:08:13;;;;;;;5.05;1.00;;;;;;;15.43;54.79;96366.28;5021743;28;24873;-69
2022/08/08 06:10:42;;;;;;;3.50;1.07;;;;;;;15.82;54.61;96375.59;5011415;28;24448;-69
2022/08/08 06:13:09;;;;;;;2.92;1.05;;;;;;;16.20;53.88;96377.97;5009323;28;24841;-71
2022/08/08 06:15:36;;;;;;;3.25;1.10;;;;;;;16.29;53.17;96380.81;5023751;28;24454;-72
2022/08/08 06:18:03;;;;;;;1.83;1.00;;;;;;;16.53;52.55;96378.09;5021271;28;24480;-72
2022/08/08 06:20:30;;;;;;;1.75;1.00;;;;;;;16.48;52.28;96377.63;5019308;28;24844;-74
2022/08/08 06:22:57;;;;;;;1.88;0.90;;;;;;;16.68;52.34;96379.53;5018307;28;24439;-75
2022/08/08 06:25:23;;;;;;;3.90;1.00;;;;;;;16.81;51.76;96377.66;5019313;28;24466;-76
2022/08/08 06:27:55;;;;;;;2.30;1.10;;;;;;;17.10;51.18;96374.56;5017647;28;24522;-73
2022/08/08 06:30:22;;;;;;;1.13;1.02;;;;;;;17.41;50.54;96386.03;5018240;28;24440;-74
2022/08/08 06:32:51;;;;;;;2.15;1.10;;;;;;;17.57;50.08;96378.56;5011159;28;24444;-73
2022/08/08 06:35:18;;;;;;;1.40;1.00;;;;;;;17.86;49.54;96386.72;5019813;28;25004;-74
2022/08/08 06:37:46;;;;;;;1.95;0.90;;;;;;;18.13;48.87;96383.63;5011810;28;24444;-75
2022/08/08 06:40:17;;;;;;;3.70;1.20;;;;;;;18.40;48.67;96381.44;5018138;28;24846;-74
2022/08/08 06:42:51;;;;;;;1.15;0.90;;;;;;;18.67;47.45;96383.50;5015856;28;24826;-69
2022/08/08 06:45:19;;;;;;;3.58;1.30;;;;;;;18.95;47.64;96387.22;5022193;28;24468;-73
2022/08/08 06:47:46;;;;;;;3.47;0.95;;;;;;;19.17;45.72;96387.03;5016629;28;24443;-74
2022/08/08 06:50:13;;;;;;;2.35;1.00;;;;;;;19.31;45.84;96388.44;5017175;28;24999;-75
2022/08/08 06:52:41;;;;;;;1.77;0.90;;;;;;;19.56;45.39;96395.81;5016480;28;24454;-74
2022/08/08 06:55:08;;;;;;;1.35;1.00;;;;;;;19.54;45.50;96394.28;5012132;28;24502;-69
2022/08/08 06:57:35;;;;;;;2.67;1.30;;;;;;;19.55;45.67;96394.16;5016341;28;24816;-74
2022/08/08 07:00:05;;;;;;;1.15;1.00;;;;;;;19.75;44.61;96396.81;5020890;28;24491;-74
2022/08/08 07:02:35;;;;;;;1.30;0.93;;;;;;;20.12;43.88;96393.50;5022132;28;24444;-72
2022/08/08 07:05:04;;;;;;;2.75;1.20;;;;;;;20.34;44.60;96403.72;5015693;28;24444;-73
2022/08/08 07:07:45;;;;;;;2.35;0.90;;;;;;;20.76;43.48;96405.97;5018734;28;24514;-74
2022/08/08 07:10:11;;;;;;;1.42;0.88;;;;;;;21.10;43.76;96401.00;5012772;28;24599;-74
2022/08/08 07:12:41;;;;;;;1.70;1.02;;;;;;;21.51;43.42;96404.16;5015360;28;24988;-72
2022/08/08 07:15:10;;;;;;;1.75;1.25;;;;;;;21.76;43.23;96399.94;5014518;28;24540;-73
2022/08/08 07:17:45;;;;;;;2.33;1.08;;;;;;;21.83;41.23;96395.72;5014809;28;24443;-73
2022/08/08 07:20:18;;;;;;;1.35;0.90;;;;;;;21.54;41.77;96400.38;5013834;28;24433;-73
2022/08/08 07:22:53;;;;;;;1.52;1.20;;;;;;;21.23;42.97;96398.84;5022272;28;24466;-73
2022/08/08 07:25:20;;;;;;;2.15;1.10;;;;;;;21.70;42.85;96401.38;5020759;28;24435;-73
2022/08/08 07:27:50;;;;;;;1.50;1.10;;;;;;;22.04;41.49;96405.13;5017241;28;24436;-73
2022/08/08 07:30:17;;;;;;;6.27;1.40;;;;;;;22.28;42.68;96404.53;5016944;28;24984;-72
2022/08/08 07:32:47;;;;;;;5.28;1.33;;;;;;;22.30;41.69;96397.31;5019534;28;24439;-73
2022/08/08 07:35:15;;;;;;;3.05;1.30;;;;;;;22.15;43.85;96402.31;5019233;28;24486;-73
2022/08/08 07:37:43;;;;;;;2.70;1.27;;;;;;;22.19;43.05;96399.19;5025499;28;24482;-73
2022/08/08 07:40:11;;;;;;;3.00;1.40;;;;;;;22.56;43.40;96405.22;5019826;28;24715;-73
2022/08/08 07:42:39;;;;;;;1.63;1.23;;;;;;;22.79;43.52;96402.91;5027149;28;24440;-73
2022/08/08 07:45:06;;;;;;;2.37;1.20;;;;;;;22.89;43.62;96407.09;5016423;28;25043;-73
2022/08/08 07:47:33;;;;;;;3.45;1.77;;;;;;;23.38;43.67;96404.66;5023590;28;24452;-72
2022/08/08 07:50:01;;;;;;;2.75;1.50;;;;;;;23.42;42.93;96405.19;5017567;28;24484;-73
2022/08/08 07:52:29;;;;;;;3.25;1.40;;;;;;;23.43;42.79;96407.69;5012474;28;24980;-72
2022/08/08 07:55:02;;;;;;;2.38;1.50;;;;;;;23.64;44.21;96409.88;5019185;28;24440;-73
2022/08/08 07:57:40;;;;;;;2.27;1.53;;;;;;;24.29;45.16;96409.16;5012832;28;24441;-74
2022/08/08 08:00:09;;;;;;;3.90;1.50;;;;;;;24.42;43.85;96415.78;5018101;28;24432;-74
2022/08/08 08:02:39;;;;;;;3.33;1.60;;;;;;;24.80;44.27;96415.06;5021961;28;24447;-74
2022/08/08 08:05:18;;;;;;;3.47;1.40;;;;;;;24.77;44.45;96423.38;5019506;28;24869;-73
2022/08/08 08:07:49;;;;;;;3.45;1.60;;;;;;;24.71;43.95;96417.91;5022445;28;24937;-74
2022/08/08 08:10:17;;;;;;;2.15;1.33;;;;;;;24.62;43.13;96417.06;5019755;28;24484;-72
2022/08/08 08:12:52;;;;;;;1.60;1.30;;;;;;;24.68;43.33;96424.34;5023065;28;24585;-72
2022/08/08 08:15:22;;;;;;;2.67;1.67;;;;;;;24.82;43.12;96426.31;5018310;28;24440;-72
2022/08/08 08:17:50;;;;;;;11.05;1.38;;;;;;;24.83;41.56;96424.50;5014748;28;24992;-72
2022/08/08 08:20:20;;;;;;;2.88;1.30;;;;;;;25.09;40.44;96421.59;5015592;28;24826;-71
2022/08/08 08:22:47;;;;;;;4.47;1.30;;;;;;;25.14;40.29;96411.38;5017910;28;24436;-74
2022/08/08 08:25:13;;;;;;;4.13;1.60;;;;;;;25.56;39.72;96420.78;5019518;28;24436;-73
2022/08/08 08:27:40;;;;;;;1.42;1.13;;;;;;;25.49;40.47;96412.69;5020608;28;24450;-74
2022/08/08 08:30:07;;;;;;;1.55;1.25;;;;;;;25.17;40.04;96416.31;5013956;28;24862;-73
2022/08/08 08:32:34;;;;;;;1.52;1.25;;;;;;;25.39;41.55;96417.38;5018179;28;24451;-73
2022/08/08 08:35:01;;;;;;;4.45;1.30;;;;;;;25.63;39.55;96418.28;5010819;28;24447;-73
2022/08/08 08:37:28;;;;;;;2.83;1.20;;;;;;;25.56;38.37;96415.47;5016552;28;24494;-73
2022/08/08 08:39:55;;;;;;;1.50;1.20;;;;;;;25.90;39.44;96419.63;5018214;28;24830;-73
2022/08/08 08:42:23;;;;;;;3.60;1.55;;;;;;;26.13;37.91;96424.94;5020502;28;24432;-73
2022/08/08 08:44:50;;;;;;;2.88;1.40;;;;;;;26.05;37.38;96412.56;5017247;28;24492;-75
2022/08/08 08:47:18;;;;;;;1.90;1.10;;;;;;;25.92;36.65;96417.59;5021547;28;24444;-73
2022/08/08 08:49:45;;;;;;;1.80;1.10;;;;;;;26.00;37.18;96414.91;5014418;28;25027;-74
2022/08/08 08:52:16;;;;;;;2.85;1.30;;;;;;;26.18;36.92;96418.09;5021745;28;24443;-69
2022/08/08 08:54:45;;;;;;;3.10;1.60;;;;;;;26.31;35.98;96415.66;5017380;28;24988;-73
2022/08/08 08:57:12;;;;;;;2.60;0.93;;;;;;;26.40;32.74;96419.09;5021661;28;24440;-75
2022/08/08 08:59:43;;;;;;;3.70;1.27;;;;;;;25.95;33.65;96412.78;5012547;28;24437;-73
2022/08/08 09:02:18;;;;;;;4.60;1.63;;;;;;;26.18;34.09;96418.09;5017291;28;24796;-73
2022/08/08 09:04:47;;;;;;;5.95;1.20;;;;;;;26.12;33.51;96423.28;5019120;28;24441;-74
2022/08/08 09:07:18;;;;;;;2.30;1.17;;;;;;;26.12;34.07;96423.28;5012820;28;24837;-73
2022/08/08 09:09:52;;;;;;;2.83;1.15;;;;;;;25.88;34.43;96421.63;5022335;28;24563;-73
2022/08/08 09:12:21;;;;;;;5.15;1.30;;;;;;;25.79;35.42;96428.81;5015885;28;24446;-73
2022/08/08 09:14:49;;;;;;;6.45;1.38;;;;;;;25.99;36.19;96426.50;5017249;28;24436;-72
2022/08/08 09:17:16;;;;;;;2.25;1.30;;;;;;;26.21;35.51;96420.38;5019326;28;24440;-72
2022/08/08 09:19:43;;;;;;;3.17;1.15;;;;;;;26.62;35.18;96430.69;5019563;28;24481;-72
2022/08/08 09:22:10;;;;;;;2.40;1.40;;;;;;;26.59;35.52;96428.41;5013513;28;25004;-73
2022/08/08 09:24:38;;;;;;;1.80;1.30;;;;;;;26.75;35.44;96425.59;5017383;28;24440;-73
2022/08/08 09:27:08;;;;;;;1.93;1.10;;;;;;;26.74;35.39;96425.78;5010517;28;24526;-73
2022/08/08 09:29:48;;;;;;;3.70;1.38;;;;;;;26.09;34.84;96424.47;5017031;28;24560;-73
2022/08/08 09:32:21;;;;;;;4.25;1.30;;;;;;;25.92;35.15;96429.06;5019003;28;24502;-73
2022/08/08 09:34:50;;;;;;;1.83;1.02;;;;;;;26.01;34.47;96422.69;5015312;28;25000;-73
2022/08/08 09:37:18;;;;;;;6.40;1.23;;;;;;;25.97;33.06;96424.06;5009470;28;24985;-72
2022/08/08 09:39:59;;;;;;;3.97;1.30;;;;;;;26.13;32.87;96420.44;5009831;28;24441;-73
2022/08/08 09:42:32;;;;;;;2.03;1.17;;;;;;;25.82;33.31;96420.50;5021427;28;24492;-73
2022/08/08 09:45:05;;;;;;;2.00;1.10;;;;;;;25.97;33.18;96424.06;5018415;28;25057;-73
2022/08/08 09:47:33;;;;;;;2.45;1.25;;;;;;;25.56;32.40;96418.97;5016343;28;24443;-73
2022/08/08 09:49:59;;;;;;;2.17;1.20;;;;;;;25.56;34.11;96420.78;5017106;28;24459;-73
2022/08/08 09:52:30;;;;;;;2.33;1.10;;;;;;;26.05;33.73;96431.13;5018272;28;24444;-73
2022/08/08 09:54:57;;;;;;;1.50;0.97;;;;;;;25.33;34.31;96421.56;5014261;28;24440;-74
2022/08/08 09:57:33;;;;;;;4.15;1.20;;;;;;;25.83;36.19;96416.84;5021812;28;24822;-74
2022/08/08 10:00:00;;;;;;;1.83;1.10;;;;;;;25.83;33.34;96419.50;5021239;28;24870;-74
2022/08/08 10:02:33;;;;;;;1.73;1.20;;;;;;;25.76;35.15;96410.56;5011330;28;24790;-74
2022/08/08 10:05:05;;;;;;;4.03;1.30;;;;;;;26.14;33.78;96415.97;5028013;28;25068;-73
2022/08/08 10:07:31;;;;;;;2.27;1.03;;;;;;;26.34;31.88;96414.47;5015336;28;24976;-74
2022/08/08 10:09:58;;;;;;;3.70;1.10;;;;;;;26.57;30.41;96417.13;5025762;28;24829;-74
2022/08/08 10:12:33;;;;;;;2.08;1.08;;;;;;;26.64;30.93;96412.75;5016979;28;25011;-74
2022/08/08 10:15:00;;;;;;;1.50;1.20;;;;;;;26.77;32.79;96412.97;5027297;28;24489;-73
2022/08/08 10:17:27;;;;;;;4.40;1.45;;;;;;;26.77;31.83;96418.28;5015891;28;24435;-73
2022/08/08 10:19:57;;;;;;;5.40;1.23;;;;;;;26.81;32.38;96410.75;5025952;28;24459;-73
2022/08/08 10:22:25;;;;;;;2.03;1.23;;;;;;;26.93;32.08;96406.63;5024720;28;24442;-73
2022/08/08 10:24:58;;;;;;;2.03;1.10;;;;;;;26.87;32.55;96403.88;5025460;28;24969;-74
2022/08/08 10:27:27;;;;;;;3.30;1.40;;;;;;;27.11;33.00;96410.78;5020393;28;24452;-74
2022/08/08 10:30:00;;;;;;;2.47;1.20;;;;;;;27.21;30.25;96398.03;5024606;28;24451;-73
2022/08/08 10:32:36;;;;;;;2.08;1.00;;;;;;;26.99;30.02;96408.53;5023864;28;24530;-73
2022/08/08 10:35:06;;;;;;;1.40;1.00;;;;;;;26.69;30.63;96410.38;5026532;28;24578;-73
2022/08/08 10:37:35;;;;;;;6.10;1.20;;;;;;;26.82;31.62;96411.59;5019650;28;24424;-73
2022/08/08 10:40:13;;;;;;;2.00;1.10;;;;;;;26.71;31.41;96408.38;5025034;28;24969;-74
2022/08/08 10:42:41;;;;;;;2.17;1.30;;;;;;;27.01;32.27;96411.88;5022406;28;24842;-73
2022/08/08 10:45:11;;;;;;;1.70;1.20;;;;;;;27.24;30.86;96411.78;5026258;28;24435;-74
2022/08/08 10:47:38;;;;;;;3.60;1.50;;;;;;;26.96;31.55;96400.97;5019582;28;24524;-73
2022/08/08 10:50:06;;;;;;;1.83;1.10;;;;;;;27.29;30.78;96405.09;5025015;28;24559;-73
2022/08/08 10:52:34;;;;;;;2.42;1.30;;;;;;;27.32;31.34;96396.75;5012360;28;24441;-76
2022/08/08 10:55:04;;;;;;;2.20;1.30;;;;;;;27.65;31.28;96402.47;5023512;28;24849;-75
2022/08/08 10:57:31;;;;;;;2.80;1.20;;;;;;;27.99;30.36;96396.50;5019448;28;24448;-75
2022/08/08 10:59:58;;;;;;;3.83;1.23;;;;;;;27.89;29.72;96406.66;5020038;28;24433;-75
2022/08/08 11:02:28;;;;;;;2.15;1.08;;;;;;;27.96;30.31;96404.88;5015771;28;24436;-75
2022/08/08 11:04:57;;;;;;;2.28;1.20;;;;;;;27.83;29.84;96394.09;5012897;28;24447;-77
2022/08/08 11:07:28;;;;;;;2.10;1.23;;;;;;;27.80;29.46;96394.47;5017358;28;24467;-76
2022/08/08 11:09:55;;;;;;;2.53;1.15;;;;;;;27.72;30.28;96388.22;5014770;28;24465;-76
2022/08/08 11:12:21;;;;;;;1.65;1.00;;;;;;;27.84;29.58;96403.72;5011259;28;24436;-74
2022/08/08 11:14:53;;;;;;;2.67;1.13;;;;;;;27.58;30.29;96397.06;5009361;28;24530;-76
2022/08/08 11:17:22;;;;;;;2.15;1.17;;;;;;;27.39;31.38;96400.31;5016217;28;24539;-75
2022/08/08 11:19:51;;;;;;;1.52;0.98;;;;;;;27.32;30.87;96389.59;5018641;28;24565;-74
2022/08/08 11:22:24;;;;;;;3.75;1.40;;;;;;;27.32;30.88;96394.91;5025532;28;24436;-72
2022/08/08 11:24:53;;;;;;;2.58;1.40;;;;;;;27.27;30.77;96386.66;5020654;28;24437;-73
2022/08/08 11:27:24;;;;;;;2.33;1.25;;;;;;;27.35;30.47;96381.25;5026575;28;24503;-72
2022/08/08 11:29:53;;;;;;;4.55;1.30;;;;;;;27.35;30.80;96385.75;5008751;28;24559;-72
2022/08/08 11:32:23;;;;;;;1.20;0.90;;;;;;;27.57;30.20;96383.94;5026372;28;24438;-73
2022/08/08 11:34:55;;;;;;;1.92;1.30;;;;;;;27.74;30.74;96377.41;5019093;28;24802;-73
2022/08/08 11:37:22;;;;;;;1.85;1.30;;;;;;;27.82;29.28;96385.28;5025769;28;24528;-73
2022/08/08 11:39:50;;;;;;;3.70;1.20;;;;;;;28.03;28.69;96386.28;5018471;28;24494;-73
2022/08/08 11:42:17;;;;;;;2.50;1.30;;;;;;;28.01;29.25;96386.50;5023025;28;24444;-73
2022/08/08 11:44:44;;;;;;;3.50;1.45;;;;;;;27.90;30.12;96379.84;5018736;28;24436;-73
2022/08/08 11:47:11;;;;;;;1.47;1.30;;;;;;;27.39;29.57;96368.38;5016943;28;24436;-70
2022/08/08 11:49:39;;;;;;;6.77;1.23;;;;;;;27.43;30.67;96367.81;5010539;28;24467;-72
2022/08/08 11:52:07;;;;;;;2.00;1.27;;;;;;;27.66;32.56;96369.50;5020185;28;24443;-74
2022/08/08 11:54:34;;;;;;;2.13;1.30;;;;;;;27.59;29.82;96373.94;5012378;28;24443;-73
2022/08/08 11:57:11;;;;;;;3.70;1.45;;;;;;;27.52;31.63;96368.56;5019455;28;24444;-74
2022/08/08 11:59:43;;;;;;;2.45;1.10;;;;;;;27.62;32.05;96378.88;5019807;28;24444;-74
2022/08/08 12:02:09;;;;;;;2.75;1.35;;;;;;;27.27;31.39;96357.41;5015666;28;24443;-72
2022/08/08 12:04:36;;;;;;;3.90;1.42;;;;;;;27.27;32.04;96370.72;5022853;28;24482;-73
2022/08/08 12:07:04;;;;;;;1.58;1.27;;;;;;;27.02;32.50;96363.00;5016476;28;24436;-74
2022/08/08 12:09:32;;;;;;;1.40;1.10;;;;;;;26.86;32.23;96360.53;5017192;28;24834;-74